sensor_id;sensor_type;location;lat;lon;timestamp;P1;durP1;ratioP1;P2;durP2;ratioP2
32918;SDS011;19280;42.646;21.150;2023-07-29T00:00:24;13.95;;;5.82;;
32918;SDS011;19280;42.646;21.150;2023-07-29T00:02:52;7.70;;;4.88;;
32918;SDS011;19280;42.646;21.150;2023-07-29T00:05:18;13.15;;;5.38;;
32918;SDS011;19280;42.646;21.150;2023-07-29T00:07:44;11.48;;;5.85;;
32918;SDS011;19280;42.646;21.150;2023-07-29T00:10:10;14.43;;;6.38;;
32918;SDS011;19280;42.646;21.150;2023-07-29T00:12:37;17.63;;;5.65;;
32918;SDS011;19280;42.646;21.150;2023-07-29T00:15:03;12.65;;;5.75;;
32918;SDS011;19280;42.646;21.150;2023-07-29T00:17:29;11.25;;;6.13;;
32918;SDS011;19280;42.646;21.150;2023-07-29T00:19:55;11.40;;;5.80;;
32918;SDS011;19280;42.646;21.150;2023-07-29T00:22:21;12.68;;;5.55;;
32918;SDS011;19280;42.646;21.150;2023-07-29T00:24:53;10.10;;;5.75;;
32918;SDS011;19280;42.646;21.150;2023-07-29T00:27:20;11.15;;;5.85;;
32918;SDS011;19280;42.646;21.150;2023-07-29T00:29:46;8.98;;;5.47;;
32918;SDS011;19280;42.646;21.150;2023-07-29T00:32:12;11.82;;;5.75;;
32918;SDS011;19280;42.646;21.150;2023-07-29T00:34:38;9.00;;;5.70;;
32918;SDS011;19280;42.646;21.150;2023-07-29T00:37:04;11.10;;;5.90;;
32918;SDS011;19280;42.646;21.150;2023-07-29T00:39:31;10.10;;;5.63;;
32918;SDS011;19280;42.646;21.150;2023-07-29T00:41:57;14.90;;;5.90;;
32918;SDS011;19280;42.646;21.150;2023-07-29T00:44:23;13.15;;;5.65;;
32918;SDS011;19280;42.646;21.150;2023-07-29T00:46:52;13.02;;;6.60;;
32918;SDS011;19280;42.646;21.150;2023-07-29T00:49:19;11.25;;;6.63;;
32918;SDS011;19280;42.646;21.150;2023-07-29T00:51:46;11.48;;;6.20;;
32918;SDS011;19280;42.646;21.150;2023-07-29T00:54:12;13.75;;;5.95;;
32918;SDS011;19280;42.646;21.150;2023-07-29T00:56:38;14.93;;;6.80;;
32918;SDS011;19280;42.646;21.150;2023-07-29T00:59:05;14.80;;;6.60;;
32918;SDS011;19280;42.646;21.150;2023-07-29T01:01:31;17.85;;;7.03;;
32918;SDS011;19280;42.646;21.150;2023-07-29T01:03:57;17.30;;;9.15;;
32918;SDS011;19280;42.646;21.150;2023-07-29T01:06:34;17.48;;;6.57;;
32918;SDS011;19280;42.646;21.150;2023-07-29T01:09:03;17.77;;;10.35;;
32918;SDS011;19280;42.646;21.150;2023-07-29T01:11:35;20.77;;;8.38;;
32918;SDS011;19280;42.646;21.150;2023-07-29T01:16:57;18.42;;;7.65;;
32918;SDS011;19280;42.646;21.150;2023-07-29T01:22:11;12.95;;;7.88;;
32918;SDS011;19280;42.646;21.150;2023-07-29T01:24:38;19.85;;;7.72;;
32918;SDS011;19280;42.646;21.150;2023-07-29T01:27:04;15.57;;;8.13;;
32918;SDS011;19280;42.646;21.150;2023-07-29T01:29:30;16.85;;;9.10;;
32918;SDS011;19280;42.646;21.150;2023-07-29T01:31:56;16.40;;;7.82;;
32918;SDS011;19280;42.646;21.150;2023-07-29T01:34:25;15.98;;;7.68;;
32918;SDS011;19280;42.646;21.150;2023-07-29T01:36:51;28.15;;;8.32;;
32918;SDS011;19280;42.646;21.150;2023-07-29T01:39:20;23.50;;;8.85;;
32918;SDS011;19280;42.646;21.150;2023-07-29T01:41:50;20.58;;;7.75;;
32918;SDS011;19280;42.646;21.150;2023-07-29T01:44:16;19.15;;;7.75;;
32918;SDS011;19280;42.646;21.150;2023-07-29T01:46:43;24.70;;;8.65;;
32918;SDS011;19280;42.646;21.150;2023-07-29T01:49:10;20.00;;;7.70;;
32918;SDS011;19280;42.646;21.150;2023-07-29T01:51:36;21.65;;;8.10;;
32918;SDS011;19280;42.646;21.150;2023-07-29T01:54:02;22.77;;;8.25;;
32918;SDS011;19280;42.646;21.150;2023-07-29T01:56:28;20.35;;;8.70;;
32918;SDS011;19280;42.646;21.150;2023-07-29T01:58:54;16.77;;;8.15;;
32918;SDS011;19280;42.646;21.150;2023-07-29T02:01:20;19.88;;;8.10;;
32918;SDS011;19280;42.646;21.150;2023-07-29T02:03:46;22.52;;;8.27;;
32918;SDS011;19280;42.646;21.150;2023-07-29T02:06:13;20.80;;;8.23;;
32918;SDS011;19280;42.646;21.150;2023-07-29T02:08:39;21.98;;;8.48;;
32918;SDS011;19280;42.646;21.150;2023-07-29T02:11:06;37.33;;;12.23;;
32918;SDS011;19280;42.646;21.150;2023-07-29T02:13:32;26.77;;;13.45;;
32918;SDS011;19280;42.646;21.150;2023-07-29T02:15:58;21.20;;;9.63;;
32918;SDS011;19280;42.646;21.150;2023-07-29T02:18:24;20.52;;;9.55;;
32918;SDS011;19280;42.646;21.150;2023-07-29T02:20:50;21.10;;;9.07;;
32918;SDS011;19280;42.646;21.150;2023-07-29T02:23:16;20.13;;;8.48;;
32918;SDS011;19280;42.646;21.150;2023-07-29T02:25:42;18.52;;;8.82;;
32918;SDS011;19280;42.646;21.150;2023-07-29T02:28:08;17.73;;;8.18;;
32918;SDS011;19280;42.646;21.150;2023-07-29T02:30:34;23.75;;;8.75;;
32918;SDS011;19280;42.646;21.150;2023-07-29T02:33:00;21.52;;;8.35;;
32918;SDS011;19280;42.646;21.150;2023-07-29T02:35:27;16.40;;;8.65;;
32918;SDS011;19280;42.646;21.150;2023-07-29T02:37:53;19.00;;;7.97;;
32918;SDS011;19280;42.646;21.150;2023-07-29T02:40:19;25.15;;;10.35;;
32918;SDS011;19280;42.646;21.150;2023-07-29T02:42:46;18.77;;;9.07;;
32918;SDS011;19280;42.646;21.150;2023-07-29T02:45:12;23.92;;;8.68;;
32918;SDS011;19280;42.646;21.150;2023-07-29T02:47:38;18.50;;;9.15;;
32918;SDS011;19280;42.646;21.150;2023-07-29T02:50:04;31.35;;;10.00;;
32918;SDS011;19280;42.646;21.150;2023-07-29T02:52:30;20.92;;;9.32;;
32918;SDS011;19280;42.646;21.150;2023-07-29T02:54:56;21.02;;;8.43;;
32918;SDS011;19280;42.646;21.150;2023-07-29T02:57:22;21.70;;;9.98;;
32918;SDS011;19280;42.646;21.150;2023-07-29T02:59:48;16.23;;;9.70;;
32918;SDS011;19280;42.646;21.150;2023-07-29T03:02:14;25.77;;;12.43;;
32918;SDS011;19280;42.646;21.150;2023-07-29T03:04:41;23.63;;;11.57;;
32918;SDS011;19280;42.646;21.150;2023-07-29T03:07:07;21.48;;;11.75;;
32918;SDS011;19280;42.646;21.150;2023-07-29T03:09:33;21.65;;;12.35;;
32918;SDS011;19280;42.646;21.150;2023-07-29T03:11:59;23.90;;;12.98;;
32918;SDS011;19280;42.646;21.150;2023-07-29T03:14:25;22.27;;;13.98;;
32918;SDS011;19280;42.646;21.150;2023-07-29T03:16:52;28.15;;;14.57;;
32918;SDS011;19280;42.646;21.150;2023-07-29T03:19:18;28.45;;;14.20;;
32918;SDS011;19280;42.646;21.150;2023-07-29T03:21:44;26.10;;;14.55;;
32918;SDS011;19280;42.646;21.150;2023-07-29T03:24:11;25.73;;;13.88;;
32918;SDS011;19280;42.646;21.150;2023-07-29T03:26:37;33.33;;;13.13;;
32918;SDS011;19280;42.646;21.150;2023-07-29T03:29:03;31.92;;;13.80;;
32918;SDS011;19280;42.646;21.150;2023-07-29T03:31:29;26.17;;;13.60;;
32918;SDS011;19280;42.646;21.150;2023-07-29T03:33:55;25.02;;;11.90;;
32918;SDS011;19280;42.646;21.150;2023-07-29T03:36:21;19.10;;;10.15;;
32918;SDS011;19280;42.646;21.150;2023-07-29T03:38:50;23.77;;;10.05;;
32918;SDS011;19280;42.646;21.150;2023-07-29T03:41:16;17.45;;;9.95;;
32918;SDS011;19280;42.646;21.150;2023-07-29T03:43:42;14.18;;;8.50;;
32918;SDS011;19280;42.646;21.150;2023-07-29T03:46:08;13.93;;;8.85;;
32918;SDS011;19280;42.646;21.150;2023-07-29T03:48:35;19.33;;;8.25;;
32918;SDS011;19280;42.646;21.150;2023-07-29T03:51:01;21.58;;;8.90;;
32918;SDS011;19280;42.646;21.150;2023-07-29T03:53:27;13.05;;;8.43;;
32918;SDS011;19280;42.646;21.150;2023-07-29T03:55:53;17.00;;;9.00;;
32918;SDS011;19280;42.646;21.150;2023-07-29T03:58:19;14.32;;;7.63;;
32918;SDS011;19280;42.646;21.150;2023-07-29T04:00:45;21.40;;;8.43;;
32918;SDS011;19280;42.646;21.150;2023-07-29T04:03:11;10.77;;;7.05;;
32918;SDS011;19280;42.646;21.150;2023-07-29T04:05:37;19.10;;;7.95;;
32918;SDS011;19280;42.646;21.150;2023-07-29T04:08:03;16.10;;;7.78;;
32918;SDS011;19280;42.646;21.150;2023-07-29T04:10:29;16.50;;;7.45;;
32918;SDS011;19280;42.646;21.150;2023-07-29T04:12:56;14.00;;;7.13;;
32918;SDS011;19280;42.646;21.150;2023-07-29T04:15:22;8.70;;;6.38;;
32918;SDS011;19280;42.646;21.150;2023-07-29T04:17:48;11.52;;;6.65;;
32918;SDS011;19280;42.646;21.150;2023-07-29T04:20:14;16.80;;;7.55;;
32918;SDS011;19280;42.646;21.150;2023-07-29T04:22:40;12.32;;;6.68;;
32918;SDS011;19280;42.646;21.150;2023-07-29T04:25:07;15.75;;;6.75;;
32918;SDS011;19280;42.646;21.150;2023-07-29T04:27:33;14.65;;;6.60;;
32918;SDS011;19280;42.646;21.150;2023-07-29T04:29:59;15.65;;;7.07;;
32918;SDS011;19280;42.646;21.150;2023-07-29T04:32:25;15.48;;;6.50;;
32918;SDS011;19280;42.646;21.150;2023-07-29T04:34:51;14.05;;;6.07;;
32918;SDS011;19280;42.646;21.150;2023-07-29T04:37:17;12.20;;;5.57;;
32918;SDS011;19280;42.646;21.150;2023-07-29T04:39:43;9.88;;;5.30;;
32918;SDS011;19280;42.646;21.150;2023-07-29T04:42:09;12.15;;;5.28;;
32918;SDS011;19280;42.646;21.150;2023-07-29T04:44:35;13.95;;;5.28;;
32918;SDS011;19280;42.646;21.150;2023-07-29T04:47:01;11.98;;;5.10;;
32918;SDS011;19280;42.646;21.150;2023-07-29T04:49:27;14.88;;;5.45;;
32918;SDS011;19280;42.646;21.150;2023-07-29T04:51:53;10.32;;;4.47;;
32918;SDS011;19280;42.646;21.150;2023-07-29T04:54:19;10.68;;;4.85;;
32918;SDS011;19280;42.646;21.150;2023-07-29T04:56:46;12.98;;;4.72;;
32918;SDS011;19280;42.646;21.150;2023-07-29T04:59:12;8.32;;;4.60;;
32918;SDS011;19280;42.646;21.150;2023-07-29T05:01:38;7.60;;;4.07;;
32918;SDS011;19280;42.646;21.150;2023-07-29T05:04:04;9.20;;;4.47;;
32918;SDS011;19280;42.646;21.150;2023-07-29T05:06:30;9.65;;;4.60;;
32918;SDS011;19280;42.646;21.150;2023-07-29T05:08:57;10.80;;;4.40;;
32918;SDS011;19280;42.646;21.150;2023-07-29T05:11:23;9.80;;;3.90;;
32918;SDS011;19280;42.646;21.150;2023-07-29T05:13:50;19.55;;;4.93;;
32918;SDS011;19280;42.646;21.150;2023-07-29T05:16:16;16.42;;;4.20;;
32918;SDS011;19280;42.646;21.150;2023-07-29T05:18:42;19.02;;;5.68;;
32918;SDS011;19280;42.646;21.150;2023-07-29T05:21:08;11.77;;;5.85;;
32918;SDS011;19280;42.646;21.150;2023-07-29T05:23:36;13.73;;;6.60;;
32918;SDS011;19280;42.646;21.150;2023-07-29T05:26:02;16.52;;;6.15;;
32918;SDS011;19280;42.646;21.150;2023-07-29T05:28:28;15.15;;;6.70;;
32918;SDS011;19280;42.646;21.150;2023-07-29T05:30:54;11.40;;;6.72;;
32918;SDS011;19280;42.646;21.150;2023-07-29T05:33:20;17.85;;;7.57;;
32918;SDS011;19280;42.646;21.150;2023-07-29T05:35:46;21.83;;;7.88;;
32918;SDS011;19280;42.646;21.150;2023-07-29T05:38:12;18.35;;;7.35;;
32918;SDS011;19280;42.646;21.150;2023-07-29T05:40:38;23.00;;;8.40;;
32918;SDS011;19280;42.646;21.150;2023-07-29T05:43:04;26.85;;;9.85;;
32918;SDS011;19280;42.646;21.150;2023-07-29T05:45:30;22.65;;;8.80;;
32918;SDS011;19280;42.646;21.150;2023-07-29T05:47:56;24.52;;;9.48;;
32918;SDS011;19280;42.646;21.150;2023-07-29T05:50:22;27.75;;;10.23;;
32918;SDS011;19280;42.646;21.150;2023-07-29T05:52:48;28.05;;;11.13;;
32918;SDS011;19280;42.646;21.150;2023-07-29T05:55:14;25.80;;;11.45;;
32918;SDS011;19280;42.646;21.150;2023-07-29T05:57:41;22.92;;;10.70;;
32918;SDS011;19280;42.646;21.150;2023-07-29T06:00:07;30.23;;;10.75;;
32918;SDS011;19280;42.646;21.150;2023-07-29T06:02:33;32.00;;;10.63;;
32918;SDS011;19280;42.646;21.150;2023-07-29T06:04:59;34.03;;;9.77;;
32918;SDS011;19280;42.646;21.150;2023-07-29T06:07:28;22.42;;;8.88;;
32918;SDS011;19280;42.646;21.150;2023-07-29T06:09:55;23.75;;;8.40;;
32918;SDS011;19280;42.646;21.150;2023-07-29T06:12:22;15.50;;;8.18;;
32918;SDS011;19280;42.646;21.150;2023-07-29T06:14:48;18.60;;;8.27;;
32918;SDS011;19280;42.646;21.150;2023-07-29T06:17:14;18.95;;;9.10;;
32918;SDS011;19280;42.646;21.150;2023-07-29T06:19:40;25.98;;;9.63;;
32918;SDS011;19280;42.646;21.150;2023-07-29T06:22:06;26.33;;;7.97;;
32918;SDS011;19280;42.646;21.150;2023-07-29T06:24:32;27.75;;;7.85;;
32918;SDS011;19280;42.646;21.150;2023-07-29T06:26:59;23.85;;;7.45;;
32918;SDS011;19280;42.646;21.150;2023-07-29T06:29:25;23.95;;;7.72;;
32918;SDS011;19280;42.646;21.150;2023-07-29T06:31:51;20.80;;;7.85;;
32918;SDS011;19280;42.646;21.150;2023-07-29T06:34:17;22.83;;;6.82;;
32918;SDS011;19280;42.646;21.150;2023-07-29T06:36:43;24.63;;;6.55;;
32918;SDS011;19280;42.646;21.150;2023-07-29T06:39:09;16.63;;;6.30;;
32918;SDS011;19280;42.646;21.150;2023-07-29T06:41:36;17.00;;;5.72;;
32918;SDS011;19280;42.646;21.150;2023-07-29T06:44:05;20.27;;;6.07;;
32918;SDS011;19280;42.646;21.150;2023-07-29T06:46:31;10.48;;;4.82;;
32918;SDS011;19280;42.646;21.150;2023-07-29T06:48:58;14.32;;;4.68;;
32918;SDS011;19280;42.646;21.150;2023-07-29T06:51:27;11.68;;;5.32;;
32918;SDS011;19280;42.646;21.150;2023-07-29T06:53:57;11.05;;;4.95;;
32918;SDS011;19280;42.646;21.150;2023-07-29T06:56:23;17.02;;;4.82;;
32918;SDS011;19280;42.646;21.150;2023-07-29T06:58:49;6.57;;;3.63;;
32918;SDS011;19280;42.646;21.150;2023-07-29T07:01:15;14.40;;;4.80;;
32918;SDS011;19280;42.646;21.150;2023-07-29T07:03:42;12.25;;;4.70;;
32918;SDS011;19280;42.646;21.150;2023-07-29T07:06:08;14.00;;;4.72;;
32918;SDS011;19280;42.646;21.150;2023-07-29T07:08:34;11.80;;;4.47;;
32918;SDS011;19280;42.646;21.150;2023-07-29T07:11:00;22.77;;;9.80;;
32918;SDS011;19280;42.646;21.150;2023-07-29T07:13:26;22.45;;;10.85;;
32918;SDS011;19280;42.646;21.150;2023-07-29T07:15:56;18.52;;;7.53;;
32918;SDS011;19280;42.646;21.150;2023-07-29T07:18:22;17.95;;;7.07;;
32918;SDS011;19280;42.646;21.150;2023-07-29T07:20:49;19.13;;;8.38;;
32918;SDS011;19280;42.646;21.150;2023-07-29T07:23:15;19.98;;;6.85;;
32918;SDS011;19280;42.646;21.150;2023-07-29T07:25:42;18.23;;;5.65;;
32918;SDS011;19280;42.646;21.150;2023-07-29T07:28:08;11.07;;;4.22;;
32918;SDS011;19280;42.646;21.150;2023-07-29T07:30:34;17.42;;;4.40;;
32918;SDS011;19280;42.646;21.150;2023-07-29T07:33:01;11.25;;;4.38;;
32918;SDS011;19280;42.646;21.150;2023-07-29T07:35:28;8.52;;;4.18;;
32918;SDS011;19280;42.646;21.150;2023-07-29T07:37:54;13.80;;;3.65;;
32918;SDS011;19280;42.646;21.150;2023-07-29T07:40:20;11.80;;;3.70;;
32918;SDS011;19280;42.646;21.150;2023-07-29T07:42:46;15.02;;;4.32;;
32918;SDS011;19280;42.646;21.150;2023-07-29T07:45:12;12.10;;;4.00;;
32918;SDS011;19280;42.646;21.150;2023-07-29T07:47:38;16.00;;;4.20;;
32918;SDS011;19280;42.646;21.150;2023-07-29T07:50:04;12.13;;;3.95;;
32918;SDS011;19280;42.646;21.150;2023-07-29T07:52:30;14.73;;;4.68;;
32918;SDS011;19280;42.646;21.150;2023-07-29T07:54:56;12.15;;;4.18;;
32918;SDS011;19280;42.646;21.150;2023-07-29T07:57:22;10.93;;;3.67;;
32918;SDS011;19280;42.646;21.150;2023-07-29T07:59:48;13.48;;;3.97;;
32918;SDS011;19280;42.646;21.150;2023-07-29T08:02:15;14.23;;;4.05;;
32918;SDS011;19280;42.646;21.150;2023-07-29T08:04:41;13.15;;;4.00;;
32918;SDS011;19280;42.646;21.150;2023-07-29T08:07:08;16.45;;;4.15;;
32918;SDS011;19280;42.646;21.150;2023-07-29T08:09:34;7.93;;;3.63;;
32918;SDS011;19280;42.646;21.150;2023-07-29T08:12:00;13.43;;;3.45;;
32918;SDS011;19280;42.646;21.150;2023-07-29T08:14:26;15.32;;;4.28;;
32918;SDS011;19280;42.646;21.150;2023-07-29T08:16:52;12.02;;;3.80;;
32918;SDS011;19280;42.646;21.150;2023-07-29T08:19:18;10.73;;;3.60;;
32918;SDS011;19280;42.646;21.150;2023-07-29T08:21:44;6.90;;;3.03;;
32918;SDS011;19280;42.646;21.150;2023-07-29T08:24:10;15.50;;;4.88;;
32918;SDS011;19280;42.646;21.150;2023-07-29T08:26:36;12.38;;;3.80;;
32918;SDS011;19280;42.646;21.150;2023-07-29T08:29:02;11.63;;;3.58;;
32918;SDS011;19280;42.646;21.150;2023-07-29T08:31:28;8.32;;;3.80;;
32918;SDS011;19280;42.646;21.150;2023-07-29T08:33:55;9.85;;;3.53;;
32918;SDS011;19280;42.646;21.150;2023-07-29T08:36:21;11.30;;;3.63;;
32918;SDS011;19280;42.646;21.150;2023-07-29T08:38:47;10.52;;;3.78;;
32918;SDS011;19280;42.646;21.150;2023-07-29T08:41:14;10.20;;;3.47;;
32918;SDS011;19280;42.646;21.150;2023-07-29T08:43:50;10.02;;;3.72;;
32918;SDS011;19280;42.646;21.150;2023-07-29T08:46:19;12.63;;;3.83;;
32918;SDS011;19280;42.646;21.150;2023-07-29T08:48:45;7.57;;;3.90;;
32918;SDS011;19280;42.646;21.150;2023-07-29T08:51:11;8.43;;;3.42;;
32918;SDS011;19280;42.646;21.150;2023-07-29T08:53:38;11.20;;;3.45;;
32918;SDS011;19280;42.646;21.150;2023-07-29T08:56:05;7.45;;;3.30;;
32918;SDS011;19280;42.646;21.150;2023-07-29T08:58:31;5.80;;;2.97;;
32918;SDS011;19280;42.646;21.150;2023-07-29T09:00:58;8.23;;;3.70;;
32918;SDS011;19280;42.646;21.150;2023-07-29T09:03:24;7.43;;;3.30;;
32918;SDS011;19280;42.646;21.150;2023-07-29T09:05:50;8.13;;;3.00;;
32918;SDS011;19280;42.646;21.150;2023-07-29T09:08:16;10.38;;;3.17;;
32918;SDS011;19280;42.646;21.150;2023-07-29T09:10:43;13.98;;;3.70;;
32918;SDS011;19280;42.646;21.150;2023-07-29T09:13:09;12.60;;;3.40;;
32918;SDS011;19280;42.646;21.150;2023-07-29T09:15:36;14.13;;;3.60;;
32918;SDS011;19280;42.646;21.150;2023-07-29T09:18:12;12.07;;;3.58;;
32918;SDS011;19280;42.646;21.150;2023-07-29T09:20:38;7.65;;;3.40;;
32918;SDS011;19280;42.646;21.150;2023-07-29T09:23:06;10.90;;;3.33;;
32918;SDS011;19280;42.646;21.150;2023-07-29T09:25:33;8.80;;;2.85;;
32918;SDS011;19280;42.646;21.150;2023-07-29T09:27:59;10.73;;;3.15;;
32918;SDS011;19280;42.646;21.150;2023-07-29T09:30:26;9.48;;;3.60;;
32918;SDS011;19280;42.646;21.150;2023-07-29T09:32:54;12.40;;;3.85;;
32918;SDS011;19280;42.646;21.150;2023-07-29T09:35:21;7.78;;;3.55;;
32918;SDS011;19280;42.646;21.150;2023-07-29T09:37:47;6.28;;;2.88;;
32918;SDS011;19280;42.646;21.150;2023-07-29T09:40:15;7.82;;;3.22;;
32918;SDS011;19280;42.646;21.150;2023-07-29T09:42:47;6.75;;;3.28;;
32918;SDS011;19280;42.646;21.150;2023-07-29T09:45:19;6.53;;;2.80;;
32918;SDS011;19280;42.646;21.150;2023-07-29T09:47:46;6.80;;;2.92;;
32918;SDS011;19280;42.646;21.150;2023-07-29T09:50:12;5.25;;;2.65;;
32918;SDS011;19280;42.646;21.150;2023-07-29T09:52:38;6.10;;;3.10;;
32918;SDS011;19280;42.646;21.150;2023-07-29T09:55:04;8.20;;;3.25;;
32918;SDS011;19280;42.646;21.150;2023-07-29T09:57:32;7.70;;;3.58;;
32918;SDS011;19280;42.646;21.150;2023-07-29T09:59:58;9.43;;;3.15;;
32918;SDS011;19280;42.646;21.150;2023-07-29T10:02:24;6.38;;;3.40;;
32918;SDS011;19280;42.646;21.150;2023-07-29T10:04:53;5.22;;;2.90;;
32918;SDS011;19280;42.646;21.150;2023-07-29T10:07:20;7.13;;;3.20;;
32918;SDS011;19280;42.646;21.150;2023-07-29T10:09:46;8.88;;;3.67;;
32918;SDS011;19280;42.646;21.150;2023-07-29T10:12:13;10.13;;;3.20;;
32918;SDS011;19280;42.646;21.150;2023-07-29T10:14:39;9.18;;;3.72;;
32918;SDS011;19280;42.646;21.150;2023-07-29T10:17:06;8.15;;;3.55;;
32918;SDS011;19280;42.646;21.150;2023-07-29T10:19:32;7.65;;;3.20;;
32918;SDS011;19280;42.646;21.150;2023-07-29T10:22:00;6.45;;;3.53;;
32918;SDS011;19280;42.646;21.150;2023-07-29T10:24:29;7.75;;;3.15;;
32918;SDS011;19280;42.646;21.150;2023-07-29T10:26:59;7.55;;;3.30;;
32918;SDS011;19280;42.646;21.150;2023-07-29T10:29:31;9.15;;;3.20;;
32918;SDS011;19280;42.646;21.150;2023-07-29T10:32:03;4.63;;;2.80;;
32918;SDS011;19280;42.646;21.150;2023-07-29T10:34:30;10.23;;;3.78;;
32918;SDS011;19280;42.646;21.150;2023-07-29T10:36:57;6.95;;;2.90;;
32918;SDS011;19280;42.646;21.150;2023-07-29T10:39:24;5.47;;;2.92;;
32918;SDS011;19280;42.646;21.150;2023-07-29T10:41:56;9.07;;;3.53;;
32918;SDS011;19280;42.646;21.150;2023-07-29T10:49:30;6.88;;;2.92;;
32918;SDS011;19280;42.646;21.150;2023-07-29T10:51:56;4.63;;;2.83;;
32918;SDS011;19280;42.646;21.150;2023-07-29T10:54:23;7.72;;;2.80;;
32918;SDS011;19280;42.646;21.150;2023-07-29T10:56:49;6.85;;;3.00;;
32918;SDS011;19280;42.646;21.150;2023-07-29T11:01:42;8.05;;;3.15;;
32918;SDS011;19280;42.646;21.150;2023-07-29T11:11:56;6.45;;;3.03;;
32918;SDS011;19280;42.646;21.150;2023-07-29T11:14:23;6.22;;;3.33;;
32918;SDS011;19280;42.646;21.150;2023-07-29T11:16:50;5.47;;;3.00;;
32918;SDS011;19280;42.646;21.150;2023-07-29T11:19:16;7.00;;;3.20;;
32918;SDS011;19280;42.646;21.150;2023-07-29T11:21:44;10.73;;;3.25;;
32918;SDS011;19280;42.646;21.150;2023-07-29T11:24:10;5.97;;;3.10;;
32918;SDS011;19280;42.646;21.150;2023-07-29T11:26:36;10.13;;;3.65;;
32918;SDS011;19280;42.646;21.150;2023-07-29T11:29:03;8.40;;;3.70;;
32918;SDS011;19280;42.646;21.150;2023-07-29T11:31:39;6.72;;;3.00;;
32918;SDS011;19280;42.646;21.150;2023-07-29T11:34:06;8.35;;;3.40;;
32918;SDS011;19280;42.646;21.150;2023-07-29T11:36:32;9.48;;;3.72;;
32918;SDS011;19280;42.646;21.150;2023-07-29T11:38:58;12.32;;;3.25;;
32918;SDS011;19280;42.646;21.150;2023-07-29T11:41:24;7.85;;;3.35;;
32918;SDS011;19280;42.646;21.150;2023-07-29T11:43:50;4.93;;;2.80;;
32918;SDS011;19280;42.646;21.150;2023-07-29T11:46:20;6.85;;;2.60;;
32918;SDS011;19280;42.646;21.150;2023-07-29T11:48:46;7.32;;;2.75;;
32918;SDS011;19280;42.646;21.150;2023-07-29T11:51:12;7.93;;;2.83;;
32918;SDS011;19280;42.646;21.150;2023-07-29T11:53:38;7.10;;;2.67;;
32918;SDS011;19280;42.646;21.150;2023-07-29T11:56:04;7.93;;;3.00;;
32918;SDS011;19280;42.646;21.150;2023-07-29T11:58:30;3.92;;;2.65;;
32918;SDS011;19280;42.646;21.150;2023-07-29T12:00:57;5.65;;;2.95;;
32918;SDS011;19280;42.646;21.150;2023-07-29T12:03:23;9.43;;;2.88;;
32918;SDS011;19280;42.646;21.150;2023-07-29T12:05:50;5.50;;;3.08;;
32918;SDS011;19280;42.646;21.150;2023-07-29T12:08:16;6.95;;;2.70;;
32918;SDS011;19280;42.646;21.150;2023-07-29T12:10:42;5.00;;;2.83;;
32918;SDS011;19280;42.646;21.150;2023-07-29T12:13:09;12.88;;;3.08;;
32918;SDS011;19280;42.646;21.150;2023-07-29T12:15:37;8.35;;;3.22;;
32918;SDS011;19280;42.646;21.150;2023-07-29T12:18:04;6.88;;;4.18;;
32918;SDS011;19280;42.646;21.150;2023-07-29T12:20:30;5.68;;;2.97;;
32918;SDS011;19280;42.646;21.150;2023-07-29T12:22:57;7.90;;;3.20;;
32918;SDS011;19280;42.646;21.150;2023-07-29T12:25:25;9.20;;;3.13;;
32918;SDS011;19280;42.646;21.150;2023-07-29T12:27:51;4.90;;;2.72;;
32918;SDS011;19280;42.646;21.150;2023-07-29T12:30:23;8.27;;;3.13;;
32918;SDS011;19280;42.646;21.150;2023-07-29T12:32:52;4.07;;;2.42;;
32918;SDS011;19280;42.646;21.150;2023-07-29T12:35:19;10.00;;;3.05;;
32918;SDS011;19280;42.646;21.150;2023-07-29T12:37:45;4.13;;;2.35;;
32918;SDS011;19280;42.646;21.150;2023-07-29T12:40:20;6.28;;;2.75;;
32918;SDS011;19280;42.646;21.150;2023-07-29T12:42:47;8.18;;;2.63;;
32918;SDS011;19280;42.646;21.150;2023-07-29T12:45:15;4.40;;;2.72;;
32918;SDS011;19280;42.646;21.150;2023-07-29T12:47:42;7.82;;;3.08;;
32918;SDS011;19280;42.646;21.150;2023-07-29T12:50:11;5.53;;;2.58;;
32918;SDS011;19280;42.646;21.150;2023-07-29T12:52:37;3.83;;;2.80;;
32918;SDS011;19280;42.646;21.150;2023-07-29T12:55:03;5.75;;;3.17;;
32918;SDS011;19280;42.646;21.150;2023-07-29T12:57:29;6.80;;;2.70;;
32918;SDS011;19280;42.646;21.150;2023-07-29T12:59:55;5.75;;;2.72;;
32918;SDS011;19280;42.646;21.150;2023-07-29T13:02:22;5.07;;;2.78;;
32918;SDS011;19280;42.646;21.150;2023-07-29T13:04:48;6.22;;;3.38;;
32918;SDS011;19280;42.646;21.150;2023-07-29T13:07:14;5.03;;;2.97;;
32918;SDS011;19280;42.646;21.150;2023-07-29T13:09:40;4.53;;;2.92;;
32918;SDS011;19280;42.646;21.150;2023-07-29T13:12:06;7.28;;;3.35;;
32918;SDS011;19280;42.646;21.150;2023-07-29T13:14:32;8.20;;;3.80;;
32918;SDS011;19280;42.646;21.150;2023-07-29T13:16:58;7.28;;;3.30;;
32918;SDS011;19280;42.646;21.150;2023-07-29T13:19:24;5.53;;;3.20;;
32918;SDS011;19280;42.646;21.150;2023-07-29T13:21:50;6.15;;;3.33;;
32918;SDS011;19280;42.646;21.150;2023-07-29T13:24:16;18.20;;;3.85;;
32918;SDS011;19280;42.646;21.150;2023-07-29T13:26:42;6.80;;;3.15;;
32918;SDS011;19280;42.646;21.150;2023-07-29T13:29:08;4.60;;;3.00;;
32918;SDS011;19280;42.646;21.150;2023-07-29T13:31:34;8.73;;;3.35;;
32918;SDS011;19280;42.646;21.150;2023-07-29T13:34:00;6.65;;;3.42;;
32918;SDS011;19280;42.646;21.150;2023-07-29T13:36:26;5.28;;;3.75;;
32918;SDS011;19280;42.646;21.150;2023-07-29T13:38:52;5.85;;;3.72;;
32918;SDS011;19280;42.646;21.150;2023-07-29T13:41:18;7.50;;;4.10;;
32918;SDS011;19280;42.646;21.150;2023-07-29T13:43:44;5.00;;;3.40;;
32918;SDS011;19280;42.646;21.150;2023-07-29T13:46:10;7.38;;;3.78;;
32918;SDS011;19280;42.646;21.150;2023-07-29T13:48:36;6.80;;;3.42;;
32918;SDS011;19280;42.646;21.150;2023-07-29T13:51:02;5.15;;;3.30;;
32918;SDS011;19280;42.646;21.150;2023-07-29T13:53:28;5.57;;;3.85;;
32918;SDS011;19280;42.646;21.150;2023-07-29T13:55:54;8.30;;;4.75;;
32918;SDS011;19280;42.646;21.150;2023-07-29T13:58:20;5.80;;;3.40;;
32918;SDS011;19280;42.646;21.150;2023-07-29T14:00:46;6.70;;;3.67;;
32918;SDS011;19280;42.646;21.150;2023-07-29T14:03:12;8.25;;;3.97;;
32918;SDS011;19280;42.646;21.150;2023-07-29T14:05:38;8.13;;;3.92;;
32918;SDS011;19280;42.646;21.150;2023-07-29T14:08:04;6.22;;;3.75;;
32918;SDS011;19280;42.646;21.150;2023-07-29T14:10:31;7.05;;;4.18;;
32918;SDS011;19280;42.646;21.150;2023-07-29T14:12:57;7.72;;;3.90;;
32918;SDS011;19280;42.646;21.150;2023-07-29T14:15:23;4.65;;;3.35;;
32918;SDS011;19280;42.646;21.150;2023-07-29T14:17:52;9.02;;;3.80;;
32918;SDS011;19280;42.646;21.150;2023-07-29T14:20:18;4.97;;;3.10;;
32918;SDS011;19280;42.646;21.150;2023-07-29T14:22:44;6.47;;;3.38;;
32918;SDS011;19280;42.646;21.150;2023-07-29T14:25:10;6.45;;;3.45;;
32918;SDS011;19280;42.646;21.150;2023-07-29T14:27:36;7.18;;;3.17;;
32918;SDS011;19280;42.646;21.150;2023-07-29T14:30:03;4.95;;;2.80;;
32918;SDS011;19280;42.646;21.150;2023-07-29T14:32:29;5.05;;;3.00;;
32918;SDS011;19280;42.646;21.150;2023-07-29T14:34:55;5.03;;;3.00;;
32918;SDS011;19280;42.646;21.150;2023-07-29T14:37:21;4.75;;;3.17;;
32918;SDS011;19280;42.646;21.150;2023-07-29T14:39:47;5.55;;;3.17;;
32918;SDS011;19280;42.646;21.150;2023-07-29T14:42:13;6.03;;;3.60;;